Latest Coastal Weather Observations for Cowley Beach (Defence)

IDQ60701

Issued at 6:42 pm EST Thursday 20 February 2020 (issued every 10 minutes, with the page automatically refreshed every 10 minutes)

About coastal observations | Map of coastal stations | Coastal observations for QLD | Marine services | Other Formats
Station Details ID: 032194 Name: COWLEY BEACH (DEFENCE) Lat: -17.69 Lon: 146.11 Height: 4.25 m
Data from the previous 72 hours. | See also: Recent months for locations in Queensland
Date/Time
EST
Wind Sea
Height
m
Swell Vis
km
Cloud Weather Temp
°C
Press
hPa
Rain since
9am
mm
Dir  Spd
kts
Gust
kts
Height
m
Period
s
Dir
20/06:30pm CALM 0 2 - - - - - - - 29.3 - 0.0
20/06:00pm N 3 4 - - - - - - - 30.3 - 0.0
20/05:30pm NE 4 7 - - - - - - - 31.0 - 0.0
20/05:00pm NE 5 9 - - - - - - - 31.9 - 0.0
20/04:30pm NE 6 9 - - - - - - - 32.8 - 0.0
20/04:00pm ENE 5 8 - - - - - - - 32.3 - 0.0
20/03:30pm ENE 6 9 - - - - - - - 33.0 - 0.0
20/03:00pm ENE 7 9 - - - - - - - 33.9 - 0.0
20/02:30pm ENE 6 9 - - - - - - - 33.6 - 0.0
20/02:00pm ENE 6 9 - - - - - - - 33.6 - 0.0
20/01:30pm ENE 6 9 - - - - - - - 33.8 - 0.0
20/01:00pm NE 6 10 - - - - - - - 33.2 - 0.0
20/12:30pm NE 6 9 - - - - - - - 32.9 - 0.0
20/12:00pm NE 6 10 - - - - - - - 32.3 - 0.0
20/11:30am ENE 5 7 - - - - - - - 33.1 - 0.0
20/11:00am ENE 5 6 - - - - - - - 32.9 - 0.0
20/10:30am ENE 4 5 - - - - - - - 32.3 - 0.0
20/10:00am ENE 4 5 - - - - - - - 31.4 - 0.0
20/09:30am E 2 3 - - - - - - - 32.2 - 0.0
20/09:00am SE 2 3 - - - - - - - 31.4 - 0.0
20/08:30am CALM 0 2 - - - - - - - 29.9 - 0.0
20/08:00am SSE 1 2 - - - - - - - 28.4 - 0.0
20/07:30am WNW 2 3 - - - - - - - 26.8 - 0.0
20/07:00am NNW 2 4 - - - - - - - 25.5 - 0.0
20/06:30am NW 1 2 - - - - - - - 24.9 - 0.0
20/06:00am CALM 0 0 - - - - - - - 24.9 - 0.0
20/05:30am CALM 0 2 - - - - - - - 25.0 - 0.0
20/05:00am WSW 1 2 - - - - - - - 25.2 - 0.0
20/04:30am CALM 0 0 - - - - - - - 25.4 - 0.0
20/04:00am NW 2 3 - - - - - - - 25.5 - 0.0
20/03:30am NW 2 3 - - - - - - - 25.6 - 0.0
20/03:00am WNW 1 2 - - - - - - - 25.7 - 0.0
20/02:30am NW 2 3 - - - - - - - 25.8 - 0.0
20/02:00am NW 1 3 - - - - - - - 25.8 - 0.0
20/01:30am NW 2 3 - - - - - - - 26.0 - 0.0
20/01:00am NW 2 3 - - - - - - - 26.2 - 0.0
20/12:30am NW 2 3 - - - - - - - 26.4 - 0.0
20/12:00am NW 2 3 - - - - - - - 26.6 - 0.0
 
Date/Time
EST
Wind Sea
Height
m
Swell Vis
km
Cloud Weather Temp
°C
Press
hPa
Rain since
9am
mm
Dir  Spd
kts
Gust
kts
Height
m
Period
s
Dir
19/11:30pm NW 2 4 - - - - - - - 26.5 - 0.0
19/11:00pm N 2 3 - - - - - - - 26.3 - 0.0
19/10:30pm CALM 0 2 - - - - - - - 26.2 - 0.0
19/10:00pm CALM 0 0 - - - - - - - 26.5 - 0.0
19/09:30pm CALM 0 0 - - - - - - - 26.5 - 0.0
19/09:00pm CALM 0 0 - - - - - - - 26.6 - 0.0
19/08:30pm CALM 0 0 - - - - - - - 26.8 - 0.0
19/08:00pm CALM 0 0 - - - - - - - 27.1 - 0.0
19/07:30pm CALM 0 0 - - - - - - - 27.4 - 0.0
19/07:00pm N 1 2 - - - - - - - 27.9 - 0.0
19/06:30pm N 1 2 - - - - - - - 28.7 - 0.0
19/06:00pm NE 3 4 - - - - - - - 30.0 - 0.0
19/05:30pm ENE 4 7 - - - - - - - 30.4 - 0.0
19/05:00pm E 4 7 - - - - - - - 30.2 - 0.0
19/04:30pm ENE 4 6 - - - - - - - 30.7 - 0.0
19/04:00pm ENE 5 7 - - - - - - - 31.7 - 0.0
19/03:30pm E 4 7 - - - - - - - 30.8 - 0.0
19/03:00pm E 5 8 - - - - - - - 31.7 - 0.0
19/02:30pm ENE 6 9 - - - - - - - 31.8 - 0.0
19/02:00pm ENE 6 8 - - - - - - - 32.0 - 0.0
19/01:30pm E 3 6 - - - - - - - 30.8 - 0.0
19/01:00pm E 5 7 - - - - - - - 31.0 - 0.0
19/12:30pm E 4 7 - - - - - - - 30.7 - 0.0
19/12:00pm ESE 4 6 - - - - - - - 32.0 - 0.0
19/11:30am ESE 2 3 - - - - - - - 31.8 - 0.0
19/11:00am SE 2 4 - - - - - - - 32.0 - 0.0
19/10:30am SSE 3 5 - - - - - - - 31.1 - 0.0
19/10:00am SE 2 5 - - - - - - - 31.2 - 0.0
19/09:30am CALM 0 1 - - - - - - - 30.6 - 0.0
19/09:00am W 2 3 - - - - - - - 29.6 - 0.6
19/08:30am WSW 1 2 - - - - - - - 28.7 - 0.6
19/08:00am NW 2 4 - - - - - - - 27.6 - 0.6
19/07:30am NW 2 3 - - - - - - - 26.3 - 0.6
19/07:00am NW 1 2 - - - - - - - 25.6 - 0.6
19/06:30am WNW 2 4 - - - - - - - 25.2 - 0.6
19/06:00am NW 1 4 - - - - - - - 25.1 - 0.6
19/05:30am WNW 2 3 - - - - - - - 25.3 - 0.6
19/05:00am NW 2 3 - - - - - - - 25.3 - 0.6
19/04:30am CALM 0 3 - - - - - - - 25.2 - 0.6
19/04:00am CALM 0 0 - - - - - - - 25.4 - 0.2
19/03:30am W 1 2 - - - - - - - 25.2 - 0.0
19/03:00am W 1 2 - - - - - - - 25.4 - 0.0
19/02:30am WNW 1 3 - - - - - - - 25.6 - 0.0
19/02:00am CALM 0 0 - - - - - - - 25.6 - 0.0
19/01:30am W 1 3 - - - - - - - 25.7 - 0.0
19/01:00am NW 2 3 - - - - - - - 25.7 - 0.0
19/12:30am NNW 2 4 - - - - - - - 25.9 - 0.0
19/12:00am NW 2 3 - - - - - - - 26.0 - 0.0
 
Date/Time
EST
Wind Sea
Height
m
Swell Vis
km
Cloud Weather Temp
°C
Press
hPa
Rain since
9am
mm
Dir  Spd
kts
Gust
kts
Height
m
Period
s
Dir
18/11:30pm W 2 3 - - - - - - - 26.1 - 0.0
18/11:00pm WSW 1 3 - - - - - - - 26.5 - 0.0
18/10:30pm WSW 3 3 - - - - - - - 26.3 - 0.0
18/10:00pm SW 2 2 - - - - - - - 26.2 - 0.0
18/09:30pm CALM 0 2 - - - - - - - 26.1 - 0.0
18/09:00pm CALM 0 0 - - - - - - - 26.3 - 0.0
18/08:30pm CALM 0 0 - - - - - - - 26.6 - 0.0
18/08:00pm CALM 0 0 - - - - - - - 27.0 - 0.0
18/07:30pm CALM 0 0 - - - - - - - 27.6 - 0.0
18/07:00pm ENE 1 3 - - - - - - - 28.9 - 0.0
18/06:30pm E 2 3 - - - - - - - 29.4 - 0.0
18/06:00pm E 2 4 - - - - - - - 29.7 - 0.0
18/05:30pm E 2 4 - - - - - - - 30.2 - 0.0
18/05:00pm E 3 5 - - - - - - - 30.8 - 0.0
18/04:30pm E 3 5 - - - - - - - 30.8 - 0.0
18/04:00pm E 3 5 - - - - - - - 29.9 - 0.0
18/03:30pm SE 3 6 - - - - - - - 30.5 - 0.0
18/03:00pm ESE 3 6 - - - - - - - 30.6 - 0.0
18/02:30pm SE 3 5 - - - - - - - 32.6 - 0.0
18/02:00pm SE 4 7 - - - - - - - 31.9 - 0.0
18/01:30pm ESE 5 8 - - - - - - - 31.1 - 0.0
18/01:00pm ESE 4 8 - - - - - - - 31.7 - 0.0
18/12:30pm ESE 4 7 - - - - - - - 32.3 - 0.0
18/12:00pm ESE 4 6 - - - - - - - 31.9 - 0.0
18/11:30am ESE 3 6 - - - - - - - 31.7 - 0.0
18/11:00am ESE 4 7 - - - - - - - 31.9 - 0.0
18/10:30am ESE 3 5 - - - - - - - 31.8 - 0.0
18/10:00am SE 2 5 - - - - - - - 31.3 - 0.0
18/09:30am SSE 2 4 - - - - - - - 30.9 - 0.0
18/09:00am SSE 2 5 - - - - - - - 30.3 - 0.2
18/08:30am SW 3 6 - - - - - - - 29.5 - 0.2
18/08:00am SW 2 3 - - - - - - - 28.3 - 0.2
18/07:30am NW 2 3 - - - - - - - 27.2 - 0.2
18/07:00am W 2 3 - - - - - - - 26.0 - 0.2
18/06:30am NW 2 3 - - - - - - - 24.9 - 0.2
18/06:00am NNE 5 7 - - - - - - - 25.8 - 0.2
18/05:30am CALM 0 0 - - - - - - - 25.5 - 0.2
18/05:00am NW 1 2 - - - - - - - 25.6 - 0.2
18/04:30am WNW 1 2 - - - - - - - 25.6 - 0.2
18/04:00am WNW 1 2 - - - - - - - 25.4 - 0.2
18/03:30am NNW 1 3 - - - - - - - 25.5 - 0.2
18/03:00am NW 2 3 - - - - - - - 25.6 - 0.2
18/02:30am NW 2 3 - - - - - - - 25.6 - 0.2
18/02:00am WNW 2 3 - - - - - - - 25.7 - 0.2
18/01:30am WSW 2 3 - - - - - - - 26.1 - 0.2
18/01:00am WSW 1 2 - - - - - - - 26.2 - 0.2
18/12:30am CALM 0 0 - - - - - - - 26.3 - 0.2
18/12:00am CALM 0 0 - - - - - - - 26.6 - 0.2
 
Date/Time
EST
Wind Sea
Height
m
Swell Vis
km
Cloud Weather Temp
°C
Press
hPa
Rain since
9am
mm
Dir  Spd
kts
Gust
kts
Height
m
Period
s
Dir
17/11:30pm CALM 0 1 - - - - - - - 27.0 - 0.2
17/11:00pm SW 2 4 - - - - - - - 27.4 - 0.2
17/10:30pm SSW 1 1 - - - - - - - 27.9 - 0.2
17/10:00pm ESE 1 3 - - - - - - - 29.4 - 0.2
17/09:30pm ESE 1 3 - - - - - - - 29.5 - 0.2
17/09:00pm E 2 3 - - - - - - - 29.4 - 0.2
17/08:30pm ENE 2 3 - - - - - - - 29.5 - 0.2
17/08:00pm ESE 2 3 - - - - - - - 29.4 - 0.2
17/07:30pm SE 2 5 - - - - - - - 29.5 - 0.2
17/07:00pm ESE 2 3 - - - - - - - 29.5 - 0.2

Other formats

Comma delimited format used in spreadsheet applications
http://www.bom.gov.au/fwo/IDQ60701/IDQ60701.99218.axf

JavaScript Object Notation format (JSON) in row-major order
http://www.bom.gov.au/fwo/IDQ60701/IDQ60701.99218.json

Data quality

Most of these data are generated automatically and are frequently updated. Quality checks on data are not normally performed. It is possible for incorrect values to appear. Refer to information at About Latest Weather Observations and please check the disclaimer before using these data.